Terminal Aerodrome Forecast
Issued by NWS

Home | Current Version | Previous Version | Text Only | Print | Product List | Glossary On
Versions: 1 2 3 4 5 6 7 8 9 10 11 12 13 14 15 16 17 18 19 20 21 22 23 24 25 26 27 28 29
000
FTUS46 KPDT 230500
TAFBDN
TAF
KBDN 230520Z 2306/2406 20010G20KT P6SM VCSH FEW040 BKN050 OVC100
     FM231000 19008KT P6SM FEW040 BKN060
     FM231800 23015G25KT P6SM BKN060
     FM240300 21010KT P6SM BKN060=

USA.gov is the U.S. government's official web portal to all federal, state and local government web resources and services.